Epic Balta — 9VED8 — position and weather

sailwx.info

Track history (hours):
 
Tides and Currents Weather Stations Pressure Air Temp Water Temp Dewpoint Dewpoint Depression Visibility Wind Speed Wind Dir Waves Ship Positions

Epic Balta

Last reported at 2016-Jun-30 19:32 UTC. Time now 2016-Jul-01 00:59 UTC.
Position N 16°22' W 062°32'.

Length 100 m; draft 4.4 m.

Type: Ship. MMSI: 565525000.

Date/timePositionNaut miles runAvg speedWind from/ knotsBaromVisibWave heightAir tempDewpointWater temp
2016-Jun-30 19:32N 16°22' W 062°32'1212.7
2016-Jun-30 18:34N 16°34' W 062°30'1413.5
2016-Jun-30 17:33N 16°45' W 062°22'1313.4
2016-Jun-30 16:34N 16°56' W 062°14'1313.2
2016-Jun-30 15:34N 17°07' W 062°06'1212.0
2016-Jun-30 14:33N 17°09' W 061°54'1 1.4
2016-Jun-30 13:32N 17°09' W 061°52'0 0.0
2016-Jun-30 12:32N 17°09' W 061°52'0 0.0
2016-Jun-30 11:33N 17°09' W 061°52'0 0.0
2016-Jun-30 10:33N 17°09' W 061°52'0 0.0
2016-Jun-30 09:33N 17°09' W 061°52'0 0.0
2016-Jun-30 08:33N 17°09' W 061°52'0 0.0
2016-Jun-30 07:33N 17°09' W 061°52'0 0.0
2016-Jun-30 06:33N 17°09' W 061°52'0 0.0
2016-Jun-30 05:33N 17°09' W 061°52'0 0.0
2016-Jun-30 04:34N 17°09' W 061°52'0 0.0
2016-Jun-30 03:33N 17°09' W 061°52'0 0.0
2016-Jun-30 02:34N 17°09' W 061°52'0 0.0
2016-Jun-30 01:33N 17°09' W 061°52'0 0.0
2016-Jun-30 00:33N 17°09' W 061°52'0 0.0
2016-Jun-29 23:33N 17°09' W 061°52'0 0.0
2016-Jun-29 22:33N 17°09' W 061°52'0 0.0
2016-Jun-29 21:33N 17°09' W 061°52'0 0.0
2016-Jun-29 20:34N 17°09' W 061°52'0 0.0
2016-Jun-29 19:34N 17°09' W 061°52'0 0.0
2016-Jun-29 18:33N 17°09' W 061°52'0 0.0
2016-Jun-29 17:34N 17°09' W 061°52'0 0.0
2016-Jun-29 16:33N 17°09' W 061°52'0 0.0
2016-Jun-29 15:34N 17°09' W 061°52'0 0.0
2016-Jun-29 14:33N 17°09' W 061°52'0 0.0
2016-Jun-29 13:33N 17°09' W 061°52'0 0.0
2016-Jun-29 12:32N 17°09' W 061°52'3 2.8
2016-Jun-29 11:33N 17°09' W 061°55'0 0.0
2016-Jun-29 10:34N 17°09' W 061°55'0 0.0
2016-Jun-29 09:33N 17°09' W 061°55'0 0.0
2016-Jun-29 08:34N 17°09' W 061°55'0 0.0
2016-Jun-29 07:34N 17°09' W 061°55'0 0.0
2016-Jun-29 06:34N 17°09' W 061°55'0 0.0
2016-Jun-29 05:34N 17°09' W 061°55'0 0.0
2016-Jun-29 04:31N 17°09' W 061°55'0 0.0
2016-Jun-29 03:33N 17°09' W 061°55'0 0.0
2016-Jun-29 02:34N 17°09' W 061°55'0 0.0
2016-Jun-29 01:34N 17°09' W 061°55'0 0.0
2016-Jun-29 00:31N 17°09' W 061°55'0 0.0
2016-Jun-28 23:34N 17°09' W 061°55'0 0.0
2016-Jun-28 22:34N 17°09' W 061°55'0 0.5
2016-Jun-28 21:33N 17°09' W 061°56'6 5.7
2016-Jun-28 20:34N 17°09' W 062°01'1110.7
2016-Jun-28 19:33N 17°02' W 062°10'1211.6
2016-Jun-28 18:31N 16°52' W 062°17'  
Track history (hours):
 
Tides and Currents Weather Stations Pressure Air Temp Water Temp Dewpoint Dewpoint Depression Visibility Wind Speed Wind Dir Waves Ship Positions

Epic Balta

Last reported at 2016-Jun-30 19:32 UTC. Time now 2016-Jul-01 00:59 UTC.
Position N 16°22' W 062°32'.

Length 100 m; draft 4.4 m.

Type: Ship. MMSI: 565525000.

Date/timePositionNaut miles runAvg speedWind from/ knotsBaromVisibWave heightAir tempDewpointWater temp
2016-Jun-30 19:32N 16°22' W 062°32'1212.7
2016-Jun-30 18:34N 16°34' W 062°30'1413.5
2016-Jun-30 17:33N 16°45' W 062°22'1313.4
2016-Jun-30 16:34N 16°56' W 062°14'1313.2
2016-Jun-30 15:34N 17°07' W 062°06'1212.0
2016-Jun-30 14:33N 17°09' W 061°54'1 1.4
2016-Jun-30 13:32N 17°09' W 061°52'0 0.0
2016-Jun-30 12:32N 17°09' W 061°52'0 0.0
2016-Jun-30 11:33N 17°09' W 061°52'0 0.0
2016-Jun-30 10:33N 17°09' W 061°52'0 0.0
2016-Jun-30 09:33N 17°09' W 061°52'0 0.0
2016-Jun-30 08:33N 17°09' W 061°52'0 0.0
2016-Jun-30 07:33N 17°09' W 061°52'0 0.0
2016-Jun-30 06:33N 17°09' W 061°52'0 0.0
2016-Jun-30 05:33N 17°09' W 061°52'0 0.0
2016-Jun-30 04:34N 17°09' W 061°52'0 0.0
2016-Jun-30 03:33N 17°09' W 061°52'0 0.0
2016-Jun-30 02:34N 17°09' W 061°52'0 0.0
2016-Jun-30 01:33N 17°09' W 061°52'0 0.0
2016-Jun-30 00:33N 17°09' W 061°52'0 0.0
2016-Jun-29 23:33N 17°09' W 061°52'0 0.0
2016-Jun-29 22:33N 17°09' W 061°52'0 0.0
2016-Jun-29 21:33N 17°09' W 061°52'0 0.0
2016-Jun-29 20:34N 17°09' W 061°52'0 0.0
2016-Jun-29 19:34N 17°09' W 061°52'0 0.0
2016-Jun-29 18:33N 17°09' W 061°52'0 0.0
2016-Jun-29 17:34N 17°09' W 061°52'0 0.0
2016-Jun-29 16:33N 17°09' W 061°52'0 0.0
2016-Jun-29 15:34N 17°09' W 061°52'0 0.0
2016-Jun-29 14:33N 17°09' W 061°52'0 0.0
2016-Jun-29 13:33N 17°09' W 061°52'0 0.0
2016-Jun-29 12:32N 17°09' W 061°52'3 2.8
2016-Jun-29 11:33N 17°09' W 061°55'0 0.0
2016-Jun-29 10:34N 17°09' W 061°55'0 0.0
2016-Jun-29 09:33N 17°09' W 061°55'0 0.0
2016-Jun-29 08:34N 17°09' W 061°55'0 0.0
2016-Jun-29 07:34N 17°09' W 061°55'0 0.0
2016-Jun-29 06:34N 17°09' W 061°55'0 0.0
2016-Jun-29 05:34N 17°09' W 061°55'0 0.0
2016-Jun-29 04:31N 17°09' W 061°55'0 0.0
2016-Jun-29 03:33N 17°09' W 061°55'0 0.0
2016-Jun-29 02:34N 17°09' W 061°55'0 0.0
2016-Jun-29 01:34N 17°09' W 061°55'0 0.0
2016-Jun-29 00:31N 17°09' W 061°55'0 0.0
2016-Jun-28 23:34N 17°09' W 061°55'0 0.0
2016-Jun-28 22:34N 17°09' W 061°55'0 0.5
2016-Jun-28 21:33N 17°09' W 061°56'6 5.7
2016-Jun-28 20:34N 17°09' W 062°01'1110.7
2016-Jun-28 19:33N 17°02' W 062°10'1211.6
2016-Jun-28 18:31N 16°52' W 062°17'  

Dump ship's entire track history